createdAt,value
2022-12-03T00:01:14.462Z,9.32
2022-12-03T00:03:41.734Z,8.50
2022-12-03T00:06:08.918Z,9.63
2022-12-03T00:08:36.159Z,8.48
2022-12-03T00:11:03.457Z,9.05
2022-12-03T00:13:30.758Z,9.18
2022-12-03T00:15:58.051Z,10.23
2022-12-03T00:18:25.533Z,9.68
2022-12-03T00:20:55.608Z,9.65
2022-12-03T00:23:25.457Z,10.63
2022-12-03T00:25:52.780Z,10.02
2022-12-03T00:28:20.090Z,10.57
2022-12-03T00:30:47.291Z,11.35
2022-12-03T00:33:14.549Z,10.55
2022-12-03T00:35:41.701Z,8.93
2022-12-03T00:38:09.024Z,9.55
2022-12-03T00:40:36.410Z,9.77
2022-12-03T00:43:03.739Z,10.65
2022-12-03T00:45:31.441Z,9.00
2022-12-03T00:48:01.172Z,9.10
2022-12-03T00:50:28.451Z,8.55
2022-12-03T00:52:55.961Z,9.18
2022-12-03T00:55:23.397Z,7.22
2022-12-03T00:57:50.602Z,9.52
2022-12-03T01:00:18.173Z,9.52
2022-12-03T01:02:46.092Z,7.75
2022-12-03T01:05:13.421Z,8.30
2022-12-03T01:07:41.039Z,10.10
2022-12-03T01:10:08.829Z,10.07
2022-12-03T01:12:38.252Z,9.10
2022-12-03T01:15:10.449Z,9.23
2022-12-03T01:17:38.209Z,10.60
2022-12-03T01:20:09.127Z,8.13
2022-12-03T01:22:36.617Z,9.73
2022-12-03T01:25:04.539Z,8.85
2022-12-03T01:27:31.850Z,7.38
2022-12-03T01:30:02.644Z,8.82
2022-12-03T01:32:31.731Z,7.90
2022-12-03T01:35:01.823Z,8.05
2022-12-03T01:37:31.487Z,7.57
2022-12-03T01:39:58.559Z,8.27
2022-12-03T01:42:39.043Z,8.02
2022-12-03T01:45:07.962Z,8.57
2022-12-03T01:47:37.131Z,8.80
2022-12-03T01:50:19.836Z,8.77
2022-12-03T01:52:47.164Z,9.68
2022-12-03T01:55:18.386Z,8.63
2022-12-03T01:57:51.780Z,8.27
2022-12-03T02:00:22.166Z,7.85
2022-12-03T02:02:58.506Z,8.32
2022-12-03T02:05:28.679Z,7.68
2022-12-03T02:07:56.227Z,7.55
2022-12-03T02:10:38.137Z,10.02
2022-12-03T02:13:08.698Z,8.68
2022-12-03T02:15:40.917Z,8.82
2022-12-03T02:20:59.884Z,8.77
2022-12-03T02:23:39.376Z,8.27
2022-12-03T02:26:09.133Z,9.65
2022-12-03T02:28:36.499Z,8.18
2022-12-03T02:31:05.374Z,8.43
2022-12-03T02:33:32.887Z,8.68
2022-12-03T02:36:03.627Z,9.60
2022-12-03T02:38:32.842Z,9.18
2022-12-03T02:41:04.930Z,8.60
2022-12-03T02:43:32.082Z,7.90
2022-12-03T02:46:01.988Z,8.98
2022-12-03T02:48:36.477Z,8.77
2022-12-03T02:51:07.334Z,9.98
2022-12-03T02:53:47.513Z,8.95
2022-12-03T02:56:18.879Z,8.70
2022-12-03T02:58:50.964Z,8.20
2022-12-03T03:01:18.604Z,8.25
2022-12-03T03:03:47.491Z,8.63
2022-12-03T03:06:19.363Z,7.53
2022-12-03T03:08:46.582Z,8.18
2022-12-03T03:11:14.562Z,8.82
2022-12-03T03:13:42.116Z,7.80
2022-12-03T03:16:09.552Z,8.38
2022-12-03T03:18:37.372Z,7.65
2022-12-03T03:21:05.312Z,8.00
2022-12-03T03:23:36.539Z,8.82
2022-12-03T03:26:07.428Z,8.73
2022-12-03T03:28:48.071Z,9.60
2022-12-03T03:31:17.645Z,9.48
2022-12-03T03:33:49.344Z,6.50
2022-12-03T03:36:17.386Z,7.75
2022-12-03T03:38:47.814Z,8.25
2022-12-03T03:41:15.911Z,8.32
2022-12-03T03:43:44.579Z,8.98
2022-12-03T03:46:12.644Z,7.28
2022-12-03T03:48:41.604Z,7.80
2022-12-03T03:51:10.424Z,7.22
2022-12-03T03:53:40.872Z,6.22
2022-12-03T03:56:09.794Z,7.63
2022-12-03T03:58:38.033Z,8.82
2022-12-03T04:01:05.427Z,6.72
2022-12-03T04:03:35.404Z,8.38
2022-12-03T04:06:02.788Z,7.18
2022-12-03T04:08:30.226Z,7.20
2022-12-03T04:11:16.212Z,8.02
2022-12-03T04:13:43.607Z,8.07
2022-12-03T04:16:10.997Z,8.15
2022-12-03T04:18:44.111Z,8.18
2022-12-03T04:21:38.578Z,7.40
2022-12-03T04:24:07.482Z,7.82
2022-12-03T04:26:53.091Z,6.75
2022-12-03T04:29:21.112Z,7.63
2022-12-03T04:32:06.748Z,7.95
2022-12-03T04:34:52.506Z,6.13
2022-12-03T04:37:20.305Z,6.95
2022-12-03T04:39:47.763Z,10.73
2022-12-03T04:42:15.378Z,10.43
2022-12-03T04:44:45.221Z,10.98
2022-12-03T04:47:20.070Z,8.95
2022-12-03T04:49:51.871Z,10.98
2022-12-03T04:52:22.988Z,8.38
2022-12-03T04:54:50.169Z,8.13
2022-12-03T04:57:17.484Z,6.90
2022-12-03T04:59:44.641Z,7.75
2022-12-03T05:02:11.941Z,7.20
2022-12-03T05:04:39.088Z,6.78
2022-12-03T05:07:06.715Z,9.40
2022-12-03T05:09:34.065Z,8.75
2022-12-03T05:12:01.508Z,8.98
2022-12-03T05:14:29.068Z,10.70
2022-12-03T05:16:56.646Z,8.73
2022-12-03T05:19:44.352Z,9.57
2022-12-03T05:22:11.813Z,7.72
2022-12-03T05:24:39.416Z,10.80
2022-12-03T05:27:06.785Z,9.07
2022-12-03T05:29:34.139Z,9.90
2022-12-03T05:32:01.517Z,12.90
2022-12-03T05:34:29.000Z,9.63
2022-12-03T05:36:56.292Z,8.82
2022-12-03T05:39:25.859Z,10.80
2022-12-03T05:42:11.623Z,11.82
2022-12-03T05:44:39.898Z,9.23
2022-12-03T05:47:07.274Z,9.57
2022-12-03T05:49:34.680Z,8.00
2022-12-03T05:52:01.694Z,11.52
2022-12-03T05:54:32.107Z,14.20
2022-12-03T05:56:59.230Z,8.57
2022-12-03T05:59:26.474Z,9.70
2022-12-03T06:01:53.482Z,7.80
2022-12-03T06:04:20.703Z,11.77
2022-12-03T06:06:47.882Z,16.50
2022-12-03T06:09:14.852Z,16.67
2022-12-03T06:11:42.049Z,14.75
2022-12-03T06:14:09.392Z,15.57
2022-12-03T06:16:36.745Z,21.48
2022-12-03T06:19:06.857Z,15.35
2022-12-03T06:21:34.041Z,14.38
2022-12-03T06:24:01.805Z,15.45
2022-12-03T06:26:35.414Z,15.77
2022-12-03T06:29:02.571Z,17.13
2022-12-03T06:31:33.037Z,15.40
2022-12-03T06:34:00.373Z,14.48
2022-12-03T06:36:28.007Z,13.55
2022-12-03T06:38:55.211Z,16.45
2022-12-03T06:41:22.639Z,13.98
2022-12-03T06:43:50.335Z,16.65
2022-12-03T06:46:20.749Z,13.10
2022-12-03T06:48:50.584Z,13.80
2022-12-03T06:51:20.860Z,13.90
2022-12-03T06:53:48.025Z,13.80
2022-12-03T06:56:17.869Z,15.05
2022-12-03T06:58:48.837Z,16.35
2022-12-03T07:01:16.290Z,14.50
2022-12-03T07:03:43.650Z,11.70
2022-12-03T07:06:11.135Z,13.80
2022-12-03T07:08:38.682Z,13.25
2022-12-03T07:11:26.635Z,14.95
2022-12-03T07:13:54.219Z,15.68
2022-12-03T07:16:21.736Z,15.55
2022-12-03T07:18:50.267Z,19.05
2022-12-03T07:21:18.144Z,25.20
2022-12-03T07:23:45.519Z,12.85
2022-12-03T07:26:13.076Z,13.77
2022-12-03T07:28:43.743Z,17.00
2022-12-03T07:31:14.084Z,17.17
2022-12-03T07:33:44.618Z,13.45
2022-12-03T07:36:15.020Z,13.82
2022-12-03T07:38:48.823Z,21.73
2022-12-03T07:41:16.454Z,19.20
2022-12-03T07:43:48.322Z,16.95
2022-12-03T07:46:16.262Z,18.45
2022-12-03T07:48:46.337Z,22.55
2022-12-03T07:51:15.455Z,15.80
2022-12-03T07:53:43.126Z,15.60
2022-12-03T07:56:16.568Z,19.98
2022-12-03T07:58:46.514Z,18.02
2022-12-03T08:01:14.024Z,14.43
2022-12-03T08:03:47.596Z,13.07
2022-12-03T08:06:18.605Z,13.23
2022-12-03T08:08:46.052Z,10.90
2022-12-03T08:11:17.071Z,12.75
2022-12-03T08:13:44.401Z,12.13
2022-12-03T08:16:19.547Z,15.32
2022-12-03T08:18:48.076Z,11.38
2022-12-03T08:21:20.036Z,12.70
2022-12-03T08:23:47.937Z,12.25
2022-12-03T08:26:17.503Z,15.73
2022-12-03T08:28:44.918Z,15.60
2022-12-03T08:31:32.709Z,17.77
2022-12-03T08:34:20.106Z,14.10
2022-12-03T08:36:56.287Z,15.35
2022-12-03T08:39:36.343Z,13.15
2022-12-03T08:42:34.825Z,13.70
2022-12-03T08:45:40.920Z,12.40
2022-12-03T08:48:28.783Z,12.68
2022-12-03T08:50:58.976Z,12.45
2022-12-03T08:53:29.292Z,16.35
2022-12-03T08:56:21.078Z,14.15
2022-12-03T08:58:53.327Z,16.50
2022-12-03T09:01:34.110Z,14.27
2022-12-03T09:04:20.267Z,13.50
2022-12-03T09:06:51.847Z,11.75
2022-12-03T09:09:19.244Z,12.15
2022-12-03T09:11:50.498Z,12.32
2022-12-03T09:14:18.871Z,12.38
2022-12-03T09:16:46.586Z,12.20
2022-12-03T09:19:13.878Z,11.25
2022-12-03T09:21:43.276Z,14.85
2022-12-03T09:24:13.193Z,11.32
2022-12-03T09:26:40.717Z,14.48
2022-12-03T09:29:12.057Z,12.23
2022-12-03T09:31:40.600Z,15.10
2022-12-03T09:34:11.297Z,15.02
2022-12-03T09:36:41.319Z,14.00
2022-12-03T09:39:09.088Z,14.73
2022-12-03T09:41:36.846Z,15.85
2022-12-03T09:44:05.516Z,11.88
2022-12-03T09:46:38.780Z,13.63
2022-12-03T09:49:13.895Z,11.32
2022-12-03T09:51:45.827Z,14.55
2022-12-03T09:54:26.099Z,12.48
2022-12-03T09:56:55.667Z,13.00
2022-12-03T09:59:27.338Z,14.85
2022-12-03T10:01:55.330Z,13.65
2022-12-03T10:04:23.026Z,14.65
2022-12-03T10:06:50.808Z,12.02
2022-12-03T10:09:24.497Z,11.80
2022-12-03T10:11:52.073Z,11.80
2022-12-03T10:14:20.596Z,12.93
2022-12-03T10:16:48.548Z,12.80
2022-12-03T10:19:26.547Z,16.58
2022-12-03T10:22:00.116Z,13.50
2022-12-03T10:24:35.696Z,15.20
2022-12-03T10:27:19.641Z,13.48
2022-12-03T10:29:56.456Z,10.80
2022-12-03T10:32:42.390Z,11.27
2022-12-03T10:35:29.216Z,13.45
2022-12-03T10:38:22.499Z,16.35
2022-12-03T10:40:50.448Z,15.07
2022-12-03T10:43:20.769Z,17.20
2022-12-03T10:45:52.666Z,13.43
2022-12-03T10:48:30.759Z,15.38
2022-12-03T10:51:03.548Z,21.58
2022-12-03T10:53:33.631Z,19.83
2022-12-03T10:56:03.198Z,22.33
2022-12-03T10:58:37.390Z,19.58
2022-12-03T11:01:27.926Z,24.10
2022-12-03T11:04:04.348Z,24.25
2022-12-03T11:06:33.323Z,22.00
2022-12-03T11:09:08.330Z,17.30
2022-12-03T11:11:36.977Z,14.30
2022-12-03T11:14:05.188Z,15.23
2022-12-03T11:16:41.729Z,18.35
2022-12-03T11:19:38.400Z,14.15
2022-12-03T11:22:11.742Z,15.57
2022-12-03T11:24:40.883Z,17.65
2022-12-03T11:27:18.093Z,16.90
2022-12-03T11:29:51.856Z,13.25
2022-12-03T11:32:43.951Z,19.85
2022-12-03T11:35:38.430Z,14.30
2022-12-03T11:38:53.362Z,12.65
2022-12-03T11:41:34.971Z,12.07
2022-12-03T11:44:29.857Z,15.05
2022-12-03T11:46:58.900Z,12.38
2022-12-03T11:49:31.896Z,13.95
2022-12-03T11:52:01.691Z,13.38
2022-12-03T11:54:34.156Z,16.55
2022-12-03T11:57:28.278Z,17.45
2022-12-03T12:00:19.356Z,17.13
2022-12-03T12:02:47.648Z,20.50
2022-12-03T12:05:25.032Z,17.92
2022-12-03T12:07:57.387Z,19.00
2022-12-03T12:10:48.159Z,19.83
2022-12-03T12:13:35.747Z,18.95
2022-12-03T12:16:07.989Z,16.50
2022-12-03T12:18:39.734Z,18.88
2022-12-03T12:21:42.815Z,16.27
2022-12-03T12:24:29.318Z,15.07
2022-12-03T12:27:01.903Z,15.35
2022-12-03T12:29:29.557Z,13.95
2022-12-03T12:32:15.425Z,14.90
2022-12-03T12:34:48.445Z,18.15
2022-12-03T12:37:35.486Z,15.07
2022-12-03T12:40:13.601Z,15.38
2022-12-03T12:42:50.818Z,15.73
2022-12-03T12:45:30.377Z,14.23
2022-12-03T12:48:21.080Z,14.68
2022-12-03T12:51:10.564Z,13.93
2022-12-03T12:53:39.904Z,14.55
2022-12-03T12:56:08.392Z,15.45
2022-12-03T12:58:36.577Z,16.33
2022-12-03T13:01:13.479Z,14.52
2022-12-03T13:03:40.788Z,16.95
2022-12-03T13:06:15.199Z,15.93
2022-12-03T13:08:49.202Z,16.27
2022-12-03T13:11:42.443Z,14.48
2022-12-03T13:14:18.019Z,16.27
2022-12-03T13:16:47.656Z,14.65
2022-12-03T13:19:43.532Z,16.65
2022-12-03T13:22:25.853Z,13.50
2022-12-03T13:24:56.601Z,17.80
2022-12-03T13:27:32.821Z,16.20
2022-12-03T13:30:18.519Z,15.75
2022-12-03T13:32:45.870Z,13.68
2022-12-03T13:35:24.152Z,14.68
2022-12-03T13:37:51.531Z,14.70
2022-12-03T13:40:31.815Z,17.50
2022-12-03T13:43:02.198Z,15.73
2022-12-03T13:45:46.774Z,15.43
2022-12-03T13:48:31.551Z,12.63
2022-12-03T13:51:19.171Z,19.95
2022-12-03T13:53:46.546Z,16.33
2022-12-03T13:56:28.148Z,14.80
2022-12-03T13:58:57.491Z,14.55
2022-12-03T14:01:26.159Z,13.98
2022-12-03T14:03:53.476Z,12.00
2022-12-03T14:06:21.526Z,12.23
2022-12-03T14:08:51.496Z,14.95
2022-12-03T14:11:40.705Z,12.32
2022-12-03T14:14:07.981Z,12.65
2022-12-03T14:16:35.645Z,14.07
2022-12-03T14:19:02.878Z,19.55
2022-12-03T14:21:30.354Z,17.70
2022-12-03T14:23:57.465Z,15.43
2022-12-03T14:26:24.957Z,15.45
2022-12-03T14:28:52.365Z,17.40
2022-12-03T14:31:19.911Z,15.50
2022-12-03T14:33:47.347Z,16.23
2022-12-03T14:36:14.469Z,19.20
2022-12-03T14:38:41.625Z,16.17
2022-12-03T14:41:29.144Z,15.63
2022-12-03T14:43:56.510Z,17.27
2022-12-03T14:46:24.070Z,15.73
2022-12-03T14:48:51.850Z,16.42
2022-12-03T14:51:19.961Z,14.93
2022-12-03T14:53:47.113Z,15.30
2022-12-03T14:56:16.501Z,16.08
2022-12-03T14:58:43.874Z,18.45
2022-12-03T15:01:11.011Z,18.67
2022-12-03T15:03:38.211Z,20.67
2022-12-03T15:06:05.835Z,21.70
2022-12-03T15:08:33.164Z,18.95
2022-12-03T15:11:00.857Z,21.45
2022-12-03T15:13:28.740Z,16.85
2022-12-03T15:15:56.312Z,17.15
2022-12-03T15:18:23.553Z,18.85
2022-12-03T15:20:50.699Z,19.50
2022-12-03T15:23:18.268Z,14.10
2022-12-03T15:25:48.009Z,16.92
2022-12-03T15:28:15.341Z,22.73
2022-12-03T15:30:42.768Z,22.05
2022-12-03T15:33:09.994Z,16.77
2022-12-03T15:35:37.317Z,21.60
2022-12-03T15:38:04.507Z,21.73
2022-12-03T15:40:34.709Z,18.65
2022-12-03T15:43:02.130Z,16.02
2022-12-03T15:45:30.405Z,19.20
2022-12-03T15:48:00.849Z,17.95
2022-12-03T15:50:28.405Z,20.13
2022-12-03T15:52:55.637Z,20.05
2022-12-03T15:55:23.081Z,17.05
2022-12-03T15:57:50.851Z,17.38
2022-12-03T16:00:18.506Z,17.55
2022-12-03T16:02:52.509Z,18.90
2022-12-03T16:05:21.937Z,14.13
2022-12-03T16:07:48.996Z,16.10
2022-12-03T16:10:18.087Z,13.52
2022-12-03T16:12:45.538Z,14.35
2022-12-03T16:15:12.729Z,16.42
2022-12-03T16:17:40.257Z,15.20
2022-12-03T16:20:08.267Z,16.83
2022-12-03T16:22:36.534Z,16.88
2022-12-03T16:25:05.324Z,17.88
2022-12-03T16:27:32.422Z,19.40
2022-12-03T16:29:59.844Z,12.55
2022-12-03T16:32:30.573Z,16.02
2022-12-03T16:34:57.924Z,16.05
2022-12-03T16:37:25.267Z,16.67
2022-12-03T16:39:52.990Z,15.68
2022-12-03T16:42:20.849Z,17.45
2022-12-03T16:45:07.254Z,19.15
2022-12-03T16:47:35.591Z,17.25
2022-12-03T16:50:05.081Z,16.65
2022-12-03T16:52:32.245Z,17.05
2022-12-03T16:54:59.952Z,16.25
2022-12-03T16:57:33.747Z,17.70
2022-12-03T17:00:01.932Z,17.90
2022-12-03T17:02:31.552Z,16.58
2022-12-03T17:04:58.974Z,13.02
2022-12-03T17:07:26.364Z,16.20
2022-12-03T17:09:54.030Z,15.43
2022-12-03T17:12:21.505Z,14.48
2022-12-03T17:14:48.663Z,15.00
2022-12-03T17:17:18.828Z,15.70
2022-12-03T17:19:45.986Z,17.27
2022-12-03T17:22:16.052Z,16.65
2022-12-03T17:24:46.106Z,15.18
2022-12-03T17:27:13.378Z,18.58
2022-12-03T17:29:43.581Z,15.43
2022-12-03T17:32:10.996Z,16.05
2022-12-03T17:34:38.493Z,18.80
2022-12-03T17:37:05.654Z,18.33
2022-12-03T17:39:32.861Z,16.92
2022-12-03T17:42:00.075Z,22.02
2022-12-03T17:44:27.212Z,20.38
2022-12-03T17:46:54.561Z,20.13
2022-12-03T17:49:25.650Z,18.38
2022-12-03T17:51:56.128Z,19.63
2022-12-03T17:54:23.530Z,21.63
2022-12-03T17:56:53.653Z,21.70
2022-12-03T17:59:21.067Z,20.67
2022-12-03T18:01:48.631Z,22.65
2022-12-03T18:04:16.058Z,24.55
2022-12-03T18:06:43.386Z,23.83
2022-12-03T18:09:10.648Z,18.75
2022-12-03T18:11:37.819Z,20.60
2022-12-03T18:14:05.089Z,20.27
2022-12-03T18:16:32.383Z,22.90
2022-12-03T18:19:04.766Z,19.20
2022-12-03T18:21:33.956Z,21.73
2022-12-03T18:24:02.697Z,20.38
2022-12-03T18:26:30.104Z,16.05
2022-12-03T18:28:59.754Z,17.80
2022-12-03T18:31:27.218Z,19.13
2022-12-03T18:33:54.922Z,20.23
2022-12-03T18:36:36.403Z,19.75
2022-12-03T18:39:06.297Z,21.98
2022-12-03T18:41:33.932Z,18.83
2022-12-03T18:44:04.775Z,18.85
2022-12-03T18:46:52.505Z,21.33
2022-12-03T18:49:19.349Z,21.35
2022-12-03T18:51:47.553Z,17.02
2022-12-03T18:54:15.853Z,20.42
2022-12-03T18:56:43.346Z,19.23
2022-12-03T18:59:11.620Z,21.42
2022-12-03T19:01:38.906Z,16.83
2022-12-03T19:04:06.393Z,17.27
2022-12-03T19:06:33.533Z,20.77
2022-12-03T19:09:00.712Z,19.60
2022-12-03T19:11:28.269Z,16.67
2022-12-03T19:13:57.371Z,18.75
2022-12-03T19:16:24.780Z,18.52
2022-12-03T19:18:53.517Z,17.27
2022-12-03T19:21:21.237Z,16.83
2022-12-03T19:24:21.981Z,19.58
2022-12-03T19:26:36.079Z,18.63
2022-12-03T19:29:06.040Z,20.13
2022-12-03T19:31:33.829Z,21.20
2022-12-03T19:34:01.151Z,19.90
2022-12-03T19:36:30.429Z,19.48
2022-12-03T19:39:00.093Z,18.77
2022-12-03T19:41:30.745Z,20.23
2022-12-03T19:43:58.856Z,17.08
2022-12-03T19:46:31.485Z,16.83
2022-12-03T19:51:34.656Z,16.92
2022-12-03T19:54:04.609Z,20.23
2022-12-03T19:56:32.134Z,19.08
2022-12-03T19:58:59.835Z,20.48
2022-12-03T20:01:30.292Z,18.17
2022-12-03T20:03:59.807Z,20.13
2022-12-03T20:06:32.652Z,17.73
2022-12-03T20:09:05.574Z,17.15
2022-12-03T20:11:33.772Z,18.67
2022-12-03T20:14:04.241Z,20.42
2022-12-03T20:16:31.806Z,19.30
2022-12-03T20:19:01.807Z,19.73
2022-12-03T20:21:34.038Z,21.92
2022-12-03T20:24:01.297Z,20.05
2022-12-03T20:26:29.200Z,20.55
2022-12-03T20:28:57.592Z,18.83
2022-12-03T20:31:27.635Z,16.77
2022-12-03T20:33:57.781Z,17.52
2022-12-03T20:36:28.354Z,16.08
2022-12-03T20:39:04.516Z,16.90
2022-12-03T20:41:34.092Z,17.95
2022-12-03T20:44:02.449Z,18.15
2022-12-03T20:46:31.806Z,18.02
2022-12-03T20:48:59.816Z,19.65
2022-12-03T20:51:31.252Z,17.58
2022-12-03T20:53:59.565Z,17.25
2022-12-03T20:56:35.839Z,18.00
2022-12-03T20:59:05.823Z,15.30
2022-12-03T21:01:34.668Z,17.30
2022-12-03T21:04:03.617Z,18.40
2022-12-03T21:06:31.776Z,17.15
2022-12-03T21:08:59.361Z,15.93
2022-12-03T21:11:30.874Z,13.30
2022-12-03T21:13:59.261Z,17.27
2022-12-03T21:16:52.507Z,16.52
2022-12-03T21:19:18.592Z,14.20
2022-12-03T21:21:46.283Z,13.82
2022-12-03T21:24:14.163Z,17.67
2022-12-03T21:26:43.659Z,11.95
2022-12-03T21:29:11.179Z,13.40
2022-12-03T21:31:40.065Z,15.80
2022-12-03T21:34:08.849Z,14.23
2022-12-03T21:36:36.409Z,13.10
2022-12-03T21:39:05.020Z,14.77
2022-12-03T21:41:32.535Z,12.88
2022-12-03T21:43:59.697Z,13.80
2022-12-03T21:47:09.833Z,16.15
2022-12-03T21:49:14.816Z,14.77
2022-12-03T21:51:41.840Z,12.55
2022-12-03T21:54:09.206Z,14.98
2022-12-03T21:56:36.468Z,13.65
2022-12-03T21:59:04.687Z,14.20
2022-12-03T22:01:32.234Z,13.75
2022-12-03T22:03:59.601Z,14.70
2022-12-03T22:06:29.265Z,13.80
2022-12-03T22:08:57.341Z,12.57
2022-12-03T22:11:28.191Z,13.52
2022-12-03T22:13:57.269Z,13.80
2022-12-03T22:16:25.330Z,14.27
2022-12-03T22:18:52.594Z,14.32
2022-12-03T22:21:20.760Z,14.32
2022-12-03T22:23:48.273Z,13.98
2022-12-03T22:26:17.604Z,14.00
2022-12-03T22:28:49.657Z,12.20
2022-12-03T22:31:18.571Z,12.70
2022-12-03T22:33:48.656Z,12.57
2022-12-03T22:36:20.994Z,11.60
2022-12-03T22:38:50.291Z,13.20
2022-12-03T22:41:18.424Z,12.43
2022-12-03T22:43:46.912Z,13.15
2022-12-03T22:46:14.873Z,14.20
2022-12-03T22:48:43.317Z,11.13
2022-12-03T22:51:17.850Z,12.82
2022-12-03T22:53:45.701Z,12.43
2022-12-03T22:56:14.315Z,12.95
2022-12-03T22:58:41.605Z,11.27
2022-12-03T23:01:09.142Z,11.70
2022-12-03T23:03:37.094Z,11.35
2022-12-03T23:06:11.751Z,10.93
2022-12-03T23:08:39.351Z,10.43
2022-12-03T23:11:07.656Z,11.20
2022-12-03T23:13:35.430Z,10.40
2022-12-03T23:16:02.877Z,11.30
2022-12-03T23:18:30.487Z,12.02
2022-12-03T23:20:58.420Z,11.18
2022-12-03T23:23:27.467Z,12.05
2022-12-03T23:26:02.862Z,11.02
2022-12-03T23:28:31.547Z,11.80
2022-12-03T23:30:58.696Z,12.82
2022-12-03T23:33:26.723Z,9.18
2022-12-03T23:35:54.086Z,13.95
2022-12-03T23:38:27.571Z,12.90
2022-12-03T23:40:55.571Z,11.02
2022-12-03T23:43:23.824Z,12.05
2022-12-03T23:45:52.122Z,13.88
2022-12-03T23:48:19.337Z,13.07
2022-12-03T23:50:46.505Z,11.80
2022-12-03T23:53:13.754Z,12.10
2022-12-03T23:55:41.239Z,13.10
2022-12-03T23:58:08.390Z,9.82
